Time;durP1;ratioP1;P1;durP2;ratioP2;P2;SDS_P1;SDS_P2;PMS_P1;PMS_P2;Temp;Humidity;BMP_temperature;BMP_pressure;BME280_temperature;BME280_humidity;BME280_pressure;Samples;Min_cycle;Max_cycle;Signal;HPM_P1;HPM_P2
2021/09/09 00:02:07;;;;;;;34.88;23.38;;;;;;;14.14;67.52;101117.00;1689375;84;21069;-46
2021/09/09 00:04:37;;;;;;;40.88;23.42;;;;;;;14.07;67.89;101113.45;1692635;84;21598;-47
2021/09/09 00:07:05;;;;;;;36.15;23.70;;;;;;;13.98;68.23;101120.78;1679192;84;21143;-47
2021/09/09 00:09:31;;;;;;;;;;;;;;;13.85;68.56;101114.48;1690930;84;21045;-47
2021/09/09 00:11:59;;;;;;;28.52;22.60;;;;;;;13.73;68.83;101114.98;1687078;84;20139;-45
2021/09/09 00:14:29;;;;;;;32.60;23.90;;;;;;;13.56;69.41;101119.74;1682459;84;21088;-47
2021/09/09 00:16:58;;;;;;;35.43;23.42;;;;;;;13.50;69.68;101116.45;1686589;84;21084;-45
2021/09/09 00:19:25;;;;;;;31.62;23.05;;;;;;;13.54;69.82;101118.25;1687866;83;21058;-46
2021/09/09 00:21:52;;;;;;;33.42;24.50;;;;;;;13.59;70.13;101118.52;1696306;84;21125;-46
2021/09/09 00:24:21;;;;;;;32.28;23.52;;;;;;;13.60;70.26;101124.21;1684294;84;21175;-46
2021/09/09 00:26:48;;;;;;;35.60;23.77;;;;;;;13.59;70.53;101124.70;1688768;84;21021;-46
2021/09/09 00:29:14;;;;;;;29.60;23.70;;;;;;;13.56;70.36;101124.25;1690464;84;21056;-45
2021/09/09 00:31:41;;;;;;;35.13;23.95;;;;;;;13.49;70.46;101122.02;1683088;84;21021;-46
2021/09/09 00:34:07;;;;;;;30.30;22.42;;;;;;;13.38;70.65;101121.48;1688440;83;21106;-46
2021/09/09 00:36:35;;;;;;;35.00;22.93;;;;;;;13.33;70.94;101125.73;1680551;84;21056;-46
2021/09/09 00:39:01;;;;;;;37.50;22.95;;;;;;;13.33;71.00;101123.88;1688052;84;21036;-46
2021/09/09 00:41:30;;;;;;;32.60;22.55;;;;;;;13.29;71.10;101119.06;1675470;84;21001;-47
2021/09/09 00:43:58;;;;;;;34.53;23.83;;;;;;;13.30;71.20;101132.30;1685140;84;21263;-46
2021/09/09 00:46:24;;;;;;;29.92;23.87;;;;;;;13.22;71.52;101124.32;1682979;84;21065;-45
2021/09/09 00:48:52;;;;;;;35.25;24.98;;;;;;;13.13;71.74;101129.45;1691177;83;21100;-45
2021/09/09 00:51:19;;;;;;;31.15;25.30;;;;;;;13.07;71.97;101125.67;1695906;83;20973;-46
2021/09/09 00:53:46;;;;;;;28.20;22.95;;;;;;;13.05;72.04;101129.89;1693816;84;21088;-47
2021/09/09 00:56:13;;;;;;;36.63;24.18;;;;;;;13.12;72.08;101126.47;1683784;84;21007;-46
2021/09/09 00:58:42;;;;;;;30.12;23.32;;;;;;;13.15;72.08;101122.09;1675576;85;21080;-46
2021/09/09 01:01:09;;;;;;;36.58;25.00;;;;;;;13.13;72.14;101128.97;1652151;85;21128;-46
2021/09/09 01:03:36;;;;;;;35.00;25.27;;;;;;;13.04;72.34;101124.20;1625037;86;21101;-46
2021/09/09 01:06:03;;;;;;;35.60;24.72;;;;;;;12.97;72.68;101125.95;1642211;86;21057;-45
2021/09/09 01:08:31;;;;;;;34.63;25.20;;;;;;;12.93;72.81;101130.02;1647557;86;21322;-46
2021/09/09 01:10:59;;;;;;;35.33;25.43;;;;;;;12.93;72.97;101126.01;1648226;86;21515;-46
2021/09/09 01:13:25;;;;;;;33.85;24.92;;;;;;;13.00;72.90;101126.11;1607976;88;21101;-46
2021/09/09 01:15:52;;;;;;;34.03;25.52;;;;;;;13.08;72.92;101122.51;1636567;85;21075;-46
2021/09/09 01:18:19;;;;;;;33.90;26.07;;;;;;;13.12;72.87;101127.80;1666360;84;21581;-46
2021/09/09 01:20:47;;;;;;;37.28;26.68;;;;;;;13.10;72.81;101121.81;1667544;84;21040;-46
2021/09/09 01:23:13;;;;;;;40.55;27.02;;;;;;;13.02;72.83;101122.23;1680973;84;21161;-46
2021/09/09 01:25:39;;;;;;;33.48;26.02;;;;;;;12.96;72.93;101121.64;1675698;84;21004;-46
2021/09/09 01:28:06;;;;;;;34.33;25.15;;;;;;;12.92;73.07;101122.17;1677312;84;21041;-46
2021/09/09 01:30:32;;;;;;;30.55;25.37;;;;;;;12.95;73.08;101121.30;1634983;86;21035;-48
2021/09/09 01:33:01;;;;;;;37.35;27.25;;;;;;;12.98;73.19;101121.45;1679328;84;21025;-46
2021/09/09 01:38:23;;;;;;;39.78;26.48;;;;;;;12.96;73.36;101116.28;1793461;78;22793;-50
2021/09/09 01:40:50;;;;;;;36.88;27.07;;;;;;;12.85;73.53;101118.08;1757337;80;21042;-46
2021/09/09 01:43:17;;;;;;;33.73;25.88;;;;;;;12.79;73.66;101117.45;1752663;81;21046;-46
2021/09/09 01:45:43;;;;;;;29.87;23.73;;;;;;;12.79;73.70;101117.45;1699086;80;21510;-46
2021/09/09 01:48:10;;;;;;;31.25;25.27;;;;;;;12.81;73.58;101115.45;1683462;83;21664;-46
2021/09/09 01:50:36;;;;;;;;;;;;;;;12.84;73.65;101111.05;1684678;83;21053;-45
2021/09/09 01:53:02;;;;;;;37.88;26.17;;;;;;;12.82;73.71;101111.23;1675849;83;20246;-46
2021/09/09 01:55:29;;;;;;;34.53;25.95;;;;;;;12.72;74.03;101113.88;1683889;83;21126;-46
2021/09/09 01:57:55;;;;;;;30.90;26.65;;;;;;;12.68;74.12;101110.73;1694807;83;21070;-46
2021/09/09 02:00:22;;;;;;;31.82;26.77;;;;;;;12.65;74.26;101105.75;1687391;83;21097;-48
2021/09/09 02:02:48;;;;;;;33.73;25.15;;;;;;;12.69;74.28;101108.89;1689064;83;21546;-47
2021/09/09 02:05:15;;;;;;;35.85;25.08;;;;;;;12.80;73.96;101112.45;1693140;83;21547;-46
2021/09/09 02:07:41;;;;;;;33.33;25.25;;;;;;;12.81;73.79;101108.25;1701698;83;21590;-45
2021/09/09 02:10:10;;;;;;;37.42;24.20;;;;;;;12.76;73.86;101111.16;1685020;83;21523;-46
2021/09/09 02:12:38;;;;;;;30.43;24.70;;;;;;;12.70;74.05;101110.05;1690787;83;21514;-46
2021/09/09 02:15:07;;;;;;;40.78;25.32;;;;;;;12.68;74.14;101112.08;1689918;83;20998;-46
2021/09/09 02:17:34;;;;;;;30.88;23.95;;;;;;;12.69;74.16;101112.38;1683029;83;21142;-46
2021/09/09 02:20:00;;;;;;;33.57;25.20;;;;;;;12.73;74.03;101107.50;1687925;83;21189;-45
2021/09/09 02:22:27;;;;;;;31.37;24.32;;;;;;;12.75;73.98;101109.48;1675524;83;21028;-46
2021/09/09 02:24:54;;;;;;;38.73;26.12;;;;;;;12.73;73.97;101109.66;1666344;84;21573;-46
2021/09/09 02:27:20;;;;;;;38.60;27.13;;;;;;;12.67;74.16;101102.38;1666802;84;22046;-46
2021/09/09 02:29:46;;;;;;;33.45;24.35;;;;;;;12.62;74.32;101101.60;1660348;84;21084;-47
2021/09/09 02:32:12;;;;;;;31.57;26.17;;;;;;;12.57;74.58;101104.50;1658080;84;21095;-46
2021/09/09 02:34:40;;;;;;;35.52;24.70;;;;;;;12.57;74.58;101104.50;1628764;85;21111;-45
2021/09/09 02:37:06;;;;;;;;;;;;;;;12.65;74.41;101103.89;1625982;86;21188;-46
2021/09/09 02:39:33;;;;;;;32.48;24.07;;;;;;;12.70;74.28;101098.01;1617811;86;20533;-47
2021/09/09 02:41:59;;;;;;;32.33;23.52;;;;;;;12.66;74.31;101102.06;1597457;88;21139;-46
2021/09/09 02:44:25;;;;;;;;;;;;;;;12.62;74.38;101100.75;1619152;85;21123;-50
2021/09/09 02:46:52;;;;;;;35.58;23.75;;;;;;;12.53;74.45;101105.38;1647067;85;20203;-46
2021/09/09 02:49:19;;;;;;;30.62;24.52;;;;;;;12.40;74.67;101110.00;1650348;85;21157;-47
2021/09/09 02:51:47;;;;;;;33.25;24.27;;;;;;;12.33;74.75;101111.73;1644608;85;21694;-46
2021/09/09 02:54:13;;;;;;;29.05;23.73;;;;;;;12.32;74.84;101115.43;1637546;85;21074;-46
2021/09/09 02:56:39;;;;;;;42.10;24.18;;;;;;;12.37;74.89;101113.54;1668427;84;21065;-46
2021/09/09 02:59:06;;;;;;;34.05;23.62;;;;;;;12.41;74.96;101115.69;1674049;84;21086;-46
2021/09/09 03:01:33;;;;;;;30.40;23.95;;;;;;;12.40;74.96;101116.69;1678226;84;21073;-46
2021/09/09 03:03:59;;;;;;;35.00;25.95;;;;;;;12.34;74.98;101115.22;1675158;84;21607;-46
2021/09/09 03:06:25;;;;;;;33.18;26.55;;;;;;;12.28;75.17;101116.78;1677657;84;21076;-45
2021/09/09 03:08:51;;;;;;;33.08;25.20;;;;;;;12.25;75.32;101117.98;1676657;84;21078;-46
2021/09/09 03:11:18;;;;;;;;;;;;;;;12.25;75.44;101108.63;1682434;83;21053;-46
2021/09/09 03:13:46;;;;;;;34.85;23.85;;;;;;;12.30;75.37;101108.58;1633540;85;20448;-46
2021/09/09 03:16:14;;;;;;;31.90;25.62;;;;;;;12.29;75.47;101105.60;1641201;85;21153;-47
2021/09/09 03:18:41;;;;;;;35.20;24.85;;;;;;;12.26;75.57;101112.12;1649616;85;21161;-47
2021/09/09 03:21:07;;;;;;;29.12;24.75;;;;;;;12.21;75.64;101111.34;1648888;85;20994;-49
2021/09/09 03:23:34;;;;;;;31.17;23.80;;;;;;;12.17;75.86;101111.37;1657333;85;21336;-45
2021/09/09 03:26:00;;;;;;;29.92;23.83;;;;;;;12.19;75.89;101108.02;1652597;85;21019;-46
2021/09/09 03:28:27;;;;;;;28.10;23.38;;;;;;;12.28;75.71;101112.77;1649908;85;21038;-47
2021/09/09 03:30:54;;;;;;;28.25;24.20;;;;;;;12.33;75.61;101112.24;1651765;85;21073;-47
2021/09/09 03:33:20;;;;;;;31.50;24.85;;;;;;;12.32;75.57;101115.91;1645725;83;21076;-48
2021/09/09 03:35:46;;;;;;;31.00;23.95;;;;;;;12.28;75.70;101116.78;1634962;86;21064;-47
2021/09/09 03:38:13;;;;;;;31.17;25.08;;;;;;;12.24;75.78;101123.02;1641821;85;21070;-47
2021/09/09 03:40:40;;;;;;;37.58;26.20;;;;;;;12.20;75.98;101116.86;1639424;86;21042;-47
2021/09/09 03:43:06;;;;;;;34.15;23.47;;;;;;;12.24;76.03;101124.84;1642646;86;21602;-46
2021/09/09 03:45:33;;;;;;;30.00;22.90;;;;;;;12.32;75.96;101124.78;1654955;83;21030;-46
2021/09/09 03:47:59;;;;;;;32.28;24.75;;;;;;;12.42;76.04;101124.53;1654405;85;21069;-48
2021/09/09 03:50:27;;;;;;;27.90;23.15;;;;;;;12.56;76.03;101129.05;1663450;85;21085;-45
2021/09/09 03:52:54;;;;;;;31.33;24.92;;;;;;;12.71;75.77;101129.08;1662369;85;21082;-48
2021/09/09 03:55:21;;;;;;;27.42;22.93;;;;;;;12.60;75.38;101075.55;1652347;83;21477;-46
2021/09/09 03:57:49;;;;;;;31.77;24.57;;;;;;;13.25;74.71;101130.14;1660557;84;21076;-46
2021/09/09 04:00:18;;;;;;;32.55;23.65;;;;;;;13.60;73.60;101130.91;1663336;84;21041;-46
2021/09/09 04:02:44;;;;;;;33.58;23.73;;;;;;;14.00;72.31;101131.32;1671754;84;21072;-46
2021/09/09 04:05:10;;;;;;;33.40;23.60;;;;;;;14.47;70.77;101131.21;1638658;86;21042;-46
2021/09/09 04:07:37;;;;;;;28.02;23.27;;;;;;;14.91;69.42;101126.58;1696032;83;21499;-46
2021/09/09 04:10:06;;;;;;;29.77;22.95;;;;;;;15.26;68.03;101119.85;1710387;83;21066;-46
2021/09/09 04:12:34;;;;;;;27.13;22.32;;;;;;;15.62;66.75;101123.58;1696615;82;21005;-46
2021/09/09 04:15:03;;;;;;;25.57;22.82;;;;;;;16.01;65.15;101126.08;1696829;83;21033;-47
2021/09/09 04:17:30;;;;;;;27.40;24.40;;;;;;;16.42;64.10;101121.53;1695943;83;21041;-46
2021/09/09 04:19:57;;;;;;;23.92;21.42;;;;;;;17.22;61.10;101119.53;1690977;83;21142;-47
2021/09/09 04:22:24;;;;;;;32.17;22.27;;;;;;;17.66;59.84;101123.78;1648299;84;21093;-48
2021/09/09 04:24:51;;;;;;;30.45;23.27;;;;;;;17.66;59.84;101123.78;1664884;84;21103;-47
2021/09/09 04:27:21;;;;;;;27.25;21.65;;;;;;;18.15;58.46;101116.84;1654557;84;21068;-49
2021/09/09 04:29:46;;;;;;;26.42;23.25;;;;;;;18.60;57.10;101120.70;1664039;84;21077;-50
2021/09/09 04:32:12;;;;;;;24.87;21.80;;;;;;;18.97;55.74;101111.33;1663573;85;21064;-46
2021/09/09 04:34:39;;;;;;;28.87;22.98;;;;;;;19.34;54.67;101107.76;1660365;83;21027;-49
2021/09/09 04:37:05;;;;;;;28.55;23.42;;;;;;;19.64;53.59;101108.58;1670011;84;21129;-49
2021/09/09 04:39:31;;;;;;;27.00;22.75;;;;;;;19.91;52.85;101115.01;1669379;84;21085;-53
2021/09/09 04:41:58;;;;;;;;;;;;;;;20.18;52.08;101112.69;1686809;84;21634;-50
2021/09/09 04:44:28;;;;;;;29.55;22.30;;;;;;;20.49;51.21;101106.64;1670058;84;20151;-50
2021/09/09 04:46:54;;;;;;;31.02;22.65;;;;;;;20.79;50.52;101105.20;1654139;86;21619;-51
2021/09/09 04:49:21;;;;;;;30.90;24.02;;;;;;;21.15;49.70;101105.95;1666163;86;21071;-49
2021/09/09 04:51:46;;;;;;;;;;;;;;;21.44;48.80;101108.72;1663563;86;21051;-49
2021/09/09 04:54:12;;;;;;;31.65;23.98;;;;;;;21.67;48.03;101109.14;1637979;86;20738;-50
2021/09/09 04:56:38;;;;;;;31.12;23.47;;;;;;;21.84;47.66;101105.64;1689186;82;21032;-51
2021/09/09 04:59:05;;;;;;;26.23;22.90;;;;;;;22.04;47.15;101103.78;1713885;82;21024;-52
2021/09/09 05:01:32;;;;;;;29.15;24.55;;;;;;;22.24;46.58;101101.41;1687165;83;22490;-51
2021/09/09 05:03:59;;;;;;;31.35;22.67;;;;;;;22.50;46.01;101101.28;1662889;85;21148;-51
2021/09/09 05:06:25;;;;;;;30.85;23.47;;;;;;;22.70;45.53;101100.77;1667049;85;21072;-51
2021/09/09 05:08:51;;;;;;;30.37;22.77;;;;;;;22.91;44.62;101096.97;1655084;85;21698;-51
2021/09/09 05:11:18;;;;;;;31.55;22.73;;;;;;;23.11;44.65;101095.89;1631150;86;21044;-50
2021/09/09 05:13:45;;;;;;;27.58;21.35;;;;;;;23.30;43.93;101084.14;1632426;86;21539;-50
2021/09/09 05:16:12;;;;;;;24.10;21.48;;;;;;;23.60;43.17;101095.58;1641093;86;21051;-50
2021/09/09 05:18:39;;;;;;;27.98;20.68;;;;;;;23.83;42.63;101098.58;1630808;86;21591;-51
2021/09/09 05:21:12;;;;;;;26.02;21.02;;;;;;;24.00;42.39;101092.45;1654858;85;21504;-53
2021/09/09 05:23:38;;;;;;;26.75;22.05;;;;;;;24.20;42.03;101090.41;1661178;84;21089;-52
2021/09/09 05:26:04;;;;;;;23.42;20.90;;;;;;;24.41;40.89;101084.59;1667022;84;22159;-52
2021/09/09 05:28:31;;;;;;;24.10;21.55;;;;;;;24.59;40.04;101085.27;1672573;84;21053;-50
2021/09/09 05:30:57;;;;;;;29.27;22.13;;;;;;;24.66;39.53;101088.02;1668290;84;21571;-52
2021/09/09 05:33:23;;;;;;;27.22;19.73;;;;;;;24.68;39.35;101083.12;1666709;84;21124;-52
2021/09/09 05:35:49;;;;;;;24.67;22.07;;;;;;;24.57;39.58;101081.98;1632588;86;21025;-51
2021/09/09 05:38:16;;;;;;;23.85;21.20;;;;;;;24.27;39.75;101044.70;1628252;86;21563;-50
2021/09/09 05:40:42;;;;;;;22.48;20.10;;;;;;;24.65;39.68;101076.02;1631352;86;21512;-52
2021/09/09 05:43:09;;;;;;;23.38;20.70;;;;;;;24.90;39.13;101082.67;1632738;86;21695;-52
2021/09/09 05:45:34;;;;;;;25.23;18.90;;;;;;;25.11;38.57;101083.56;1638873;86;21055;-51
2021/09/09 05:48:00;;;;;;;21.42;18.82;;;;;;;25.08;38.31;101084.13;1625433;86;21554;-50
2021/09/09 05:50:28;;;;;;;23.65;20.80;;;;;;;25.06;38.69;101079.74;1628789;86;21630;-50
2021/09/09 05:52:55;;;;;;;23.10;18.92;;;;;;;25.17;38.54;101086.61;1626685;86;21618;-52
2021/09/09 05:55:21;;;;;;;20.12;17.95;;;;;;;25.23;37.81;101077.37;1630176;86;21547;-51
2021/09/09 05:57:47;;;;;;;19.90;17.62;;;;;;;25.30;37.91;101075.22;1630322;87;21211;-51
2021/09/09 06:00:14;;;;;;;20.35;18.15;;;;;;;25.45;37.69;101080.70;1595864;86;21033;-53
2021/09/09 06:02:45;;;;;;;23.55;17.92;;;;;;;25.62;37.26;101072.27;1596609;88;21025;-53
2021/09/09 06:05:14;;;;;;;20.60;18.48;;;;;;;25.60;36.94;101075.01;1610250;87;21030;-51
2021/09/09 06:07:41;;;;;;;21.20;18.40;;;;;;;25.37;37.24;101073.06;1625310;86;21101;-53
2021/09/09 06:10:11;;;;;;;20.55;18.65;;;;;;;25.25;37.75;101074.64;1613240;87;21628;-52
2021/09/09 06:12:38;;;;;;;20.27;18.12;;;;;;;25.22;37.73;101070.23;1630989;86;21614;-51
2021/09/09 06:15:07;;;;;;;19.73;17.82;;;;;;;25.15;38.25;101072.42;1612866;87;21066;-53
2021/09/09 06:17:33;;;;;;;19.25;17.40;;;;;;;25.36;38.07;101065.14;1629471;86;21095;-51
2021/09/09 06:20:03;;;;;;;18.57;16.85;;;;;;;25.48;37.52;101066.23;1614542;87;21078;-52
2021/09/09 06:22:30;;;;;;;18.98;16.82;;;;;;;25.50;37.50;101064.06;1625777;86;21145;-51
2021/09/09 06:24:57;;;;;;;18.50;16.62;;;;;;;25.46;37.70;101066.50;1611911;86;21186;-54
2021/09/09 06:27:23;;;;;;;19.15;15.38;;;;;;;25.38;37.75;101068.41;1602509;87;21062;-51
2021/09/09 06:29:49;;;;;;;19.27;15.75;;;;;;;25.31;38.03;101067.30;1615682;86;21034;-56
2021/09/09 06:32:15;;;;;;;18.55;16.52;;;;;;;25.36;38.37;101064.58;1596777;88;21678;-51
2021/09/09 06:34:41;;;;;;;20.25;17.37;;;;;;;25.41;37.68;101068.70;1622807;85;21620;-55
2021/09/09 06:37:08;;;;;;;20.23;18.20;;;;;;;25.40;37.93;101073.05;1597752;88;21565;-51
2021/09/09 06:39:35;;;;;;;25.65;18.15;;;;;;;25.39;37.78;101068.15;1600535;88;21122;-52
2021/09/09 06:42:02;;;;;;;20.45;16.93;;;;;;;25.21;37.88;101074.07;1630715;86;21198;-51
2021/09/09 06:44:29;;;;;;;22.77;17.00;;;;;;;24.99;38.61;101074.27;1621833;86;21128;-51
2021/09/09 06:46:55;;;;;;;19.45;17.45;;;;;;;24.82;38.58;101079.91;1651222;86;21060;-51
2021/09/09 06:49:21;;;;;;;26.97;18.15;;;;;;;24.60;39.33;101080.06;1641959;86;21064;-52
2021/09/09 06:51:47;;;;;;;18.65;16.30;;;;;;;24.25;39.87;101086.92;1641083;86;21077;-51
2021/09/09 06:54:16;;;;;;;20.60;16.40;;;;;;;23.87;40.65;101086.08;1643770;86;21602;-51
2021/09/09 06:56:44;;;;;;;19.10;16.97;;;;;;;23.47;41.68;101081.33;1636434;85;21152;-52
2021/09/09 06:59:09;;;;;;;23.52;16.27;;;;;;;23.17;42.16;101085.90;1642751;85;21009;-51
2021/09/09 07:01:36;;;;;;;17.62;15.95;;;;;;;23.02;42.77;101085.66;1641375;85;21557;-51
2021/09/09 07:04:03;;;;;;;21.07;17.50;;;;;;;22.80;43.12;101092.47;1641785;86;21096;-51
2021/09/09 07:06:30;;;;;;;18.12;16.20;;;;;;;22.47;43.62;101089.58;1640139;85;21047;-52
2021/09/09 07:08:56;;;;;;;19.90;17.07;;;;;;;22.25;43.42;101095.45;1635155;85;21058;-52
2021/09/09 07:11:22;;;;;;;18.37;16.60;;;;;;;22.11;43.80;101097.15;1644642;85;21061;-52
2021/09/09 07:13:48;;;;;;;24.47;17.23;;;;;;;22.04;44.68;101097.00;1633183;86;21098;-52
2021/09/09 07:16:14;;;;;;;;;;;;;;;22.02;44.82;101097.27;1635102;85;21153;-52
2021/09/09 07:18:40;;;;;;;20.02;18.07;;;;;;;21.91;44.65;101084.59;1629096;85;20217;-53
2021/09/09 07:21:07;;;;;;;;;;;;;;;21.85;45.09;101093.19;1641513;85;21068;-52
2021/09/09 07:23:35;;;;;;;23.60;18.10;;;;;;;21.54;45.66;101043.80;1640563;85;20145;-51
2021/09/09 07:26:01;;;;;;;22.20;16.50;;;;;;;21.75;45.61;101097.06;1635387;86;21611;-53
2021/09/09 07:28:27;;;;;;;17.20;15.40;;;;;;;21.73;45.35;101098.66;1643192;86;21604;-53
2021/09/09 07:30:54;;;;;;;20.50;15.98;;;;;;;21.76;45.81;101097.36;1641572;86;21590;-51
2021/09/09 07:33:20;;;;;;;21.10;15.45;;;;;;;21.79;45.33;101091.43;1637866;84;21642;-52
2021/09/09 07:35:46;;;;;;;;;;;;;;;21.85;44.64;101095.05;1643272;86;21150;-52
2021/09/09 07:38:12;;;;;;;14.80;13.18;;;;;;;21.89;44.34;101094.34;1635051;86;20112;-52
2021/09/09 07:40:38;;;;;;;16.30;13.53;;;;;;;21.93;44.83;101100.91;1641142;86;22354;-56
2021/09/09 07:43:07;;;;;;;15.32;13.72;;;;;;;22.03;44.63;101100.80;1641223;86;21522;-50
2021/09/09 07:45:36;;;;;;;18.65;14.20;;;;;;;22.10;44.29;101097.39;1641478;86;21084;-51
2021/09/09 07:48:03;;;;;;;16.35;13.00;;;;;;;22.15;44.04;101098.30;1638667;86;21019;-51
2021/09/09 07:50:31;;;;;;;18.32;14.13;;;;;;;22.23;43.82;101107.92;1639979;86;21025;-50
2021/09/09 07:52:58;;;;;;;19.42;14.13;;;;;;;22.26;44.23;101103.36;1629736;86;21052;-51
2021/09/09 07:55:25;;;;;;;15.70;14.10;;;;;;;22.30;44.38;101105.05;1635650;85;21044;-50
2021/09/09 07:57:51;;;;;;;17.05;13.62;;;;;;;22.38;44.18;101103.80;1643536;86;21042;-50
2021/09/09 08:00:17;;;;;;;18.62;13.83;;;;;;;22.44;44.05;101104.19;1644563;87;21039;-53
2021/09/09 08:02:44;;;;;;;25.12;15.55;;;;;;;22.47;43.93;101100.45;1640857;86;21132;-52
2021/09/09 08:05:11;;;;;;;20.80;14.80;;;;;;;22.52;44.03;101095.61;1630358;87;21025;-50
2021/09/09 08:07:45;;;;;;;16.48;14.78;;;;;;;22.61;44.00;101101.45;1625984;86;21073;-52
2021/09/09 08:10:16;;;;;;;18.85;13.50;;;;;;;22.71;43.56;101101.03;1638579;87;21137;-53
2021/09/09 08:12:47;;;;;;;17.37;13.95;;;;;;;22.76;43.57;101093.50;1651772;85;21100;-52
2021/09/09 08:15:15;;;;;;;18.52;13.62;;;;;;;22.79;43.84;101092.98;1650982;85;22035;-53
2021/09/09 08:17:43;;;;;;;19.20;13.90;;;;;;;22.79;43.65;101092.98;1656495;85;21152;-52
2021/09/09 08:20:12;;;;;;;16.15;12.07;;;;;;;22.82;43.50;101088.95;1659593;85;21014;-52
2021/09/09 08:22:42;;;;;;;15.30;13.70;;;;;;;22.87;43.52;101092.56;1655420;85;21056;-52
2021/09/09 08:25:11;;;;;;;18.77;13.72;;;;;;;22.90;43.64;101087.16;1648635;85;21611;-51
2021/09/09 08:27:38;;;;;;;16.15;13.18;;;;;;;22.93;43.82;101094.27;1660613;85;21068;-52
2021/09/09 08:30:07;;;;;;;14.55;13.03;;;;;;;22.92;43.77;101093.16;1654489;85;21042;-50
2021/09/09 08:32:33;;;;;;;14.33;12.82;;;;;;;22.97;43.26;101089.15;1650997;85;21571;-51
2021/09/09 08:35:00;;;;;;;15.18;12.68;;;;;;;23.04;42.89;101088.45;1642436;85;20997;-52
2021/09/09 08:37:26;;;;;;;14.53;13.00;;;;;;;23.06;43.22;101082.23;1642496;85;21527;-52
2021/09/09 08:39:53;;;;;;;15.03;13.00;;;;;;;23.09;42.85;101083.61;1642102;85;21077;-52
2021/09/09 08:42:19;;;;;;;16.85;11.80;;;;;;;23.14;42.92;101078.23;1631595;85;21726;-52
2021/09/09 08:44:48;;;;;;;22.67;12.53;;;;;;;23.24;42.93;101074.80;1633258;85;21512;-52
2021/09/09 08:47:15;;;;;;;14.53;12.05;;;;;;;23.29;43.00;101071.60;1640860;85;21022;-52
2021/09/09 08:49:44;;;;;;;13.25;10.70;;;;;;;23.40;43.00;101073.91;1633928;85;22115;-50
2021/09/09 08:52:12;;;;;;;17.00;11.12;;;;;;;23.49;41.72;101077.00;1641532;85;21538;-50
2021/09/09 08:54:39;;;;;;;12.45;11.10;;;;;;;23.52;41.79;101080.00;1631921;85;21179;-52
2021/09/09 08:57:06;;;;;;;15.38;11.60;;;;;;;23.54;42.11;101065.33;1642948;85;21100;-51
2021/09/09 08:59:32;;;;;;;11.85;10.65;;;;;;;23.61;41.55;101075.47;1639485;85;21547;-51
2021/09/09 09:02:05;;;;;;;14.60;10.72;;;;;;;23.68;41.56;101072.81;1637473;85;21077;-51
2021/09/09 09:04:34;;;;;;;12.55;10.30;;;;;;;23.72;41.90;101074.48;1638033;85;21052;-52
2021/09/09 09:07:04;;;;;;;15.53;10.40;;;;;;;23.75;41.47;101074.50;1643914;85;21074;-50
2021/09/09 09:09:38;;;;;;;13.35;10.68;;;;;;;23.79;41.25;101075.65;1631695;85;21094;-51
2021/09/09 09:12:09;;;;;;;16.37;10.63;;;;;;;23.86;41.28;101070.27;1636813;85;21048;-50
2021/09/09 09:14:36;;;;;;;12.45;9.88;;;;;;;23.88;40.58;101067.30;1636674;85;21023;-51
2021/09/09 09:17:06;;;;;;;12.20;9.95;;;;;;;23.88;40.65;101064.57;1648316;85;21102;-55
2021/09/09 09:19:40;;;;;;;10.63;8.90;;;;;;;23.95;40.61;101058.38;1647069;85;21097;-56
2021/09/09 09:22:14;;;;;;;11.78;9.08;;;;;;;24.04;40.69;101062.80;1640777;85;21085;-55
2021/09/09 09:24:49;;;;;;;10.55;9.43;;;;;;;24.08;40.39;101062.02;1635562;85;21064;-55
2021/09/09 09:27:19;;;;;;;10.48;8.60;;;;;;;24.13;40.08;101058.52;1637942;85;21056;-55
2021/09/09 09:30:09;;;;;;;9.15;8.35;;;;;;;24.18;39.60;101058.53;1633067;86;21016;-54
2021/09/09 09:32:45;;;;;;;11.38;8.55;;;;;;;24.22;39.58;101048.78;1632889;85;21078;-54
2021/09/09 09:35:21;;;;;;;9.55;8.65;;;;;;;24.24;38.86;101052.58;1627086;85;21586;-57
2021/09/09 09:38:06;;;;;;;8.35;7.65;;;;;;;24.20;39.18;101048.74;1641291;85;21057;-54
2021/09/09 09:40:41;;;;;;;9.83;7.72;;;;;;;24.19;38.71;101049.84;1631419;85;21166;-54
2021/09/09 09:43:10;;;;;;;10.58;8.33;;;;;;;24.11;39.18;101047.07;1622661;85;21302;-56
2021/09/09 09:45:49;;;;;;;10.15;9.10;;;;;;;24.12;39.33;101043.25;1618662;85;21531;-58
2021/09/09 09:48:33;;;;;;;11.50;7.97;;;;;;;24.14;39.33;101044.35;1647388;85;22107;-54
2021/09/09 09:51:02;;;;;;;9.90;7.47;;;;;;;24.16;39.41;101037.55;1631166;85;21056;-56
2021/09/09 09:53:29;;;;;;;9.93;8.08;;;;;;;24.23;39.41;101034.61;1644508;85;21045;-54
2021/09/09 09:55:56;;;;;;;8.10;7.15;;;;;;;24.29;39.80;101030.28;1639159;85;21087;-55
2021/09/09 09:58:22;;;;;;;10.68;7.00;;;;;;;24.37;39.17;101029.51;1648281;85;21092;-57
2021/09/09 10:00:49;;;;;;;11.18;7.78;;;;;;;24.32;38.40;101011.77;1657691;85;21136;-56
2021/09/09 10:03:15;;;;;;;7.83;7.12;;;;;;;24.37;37.30;101026.78;1653392;85;21103;-55
2021/09/09 10:05:42;;;;;;;8.00;7.35;;;;;;;24.28;37.81;101028.66;1642403;85;21072;-56
2021/09/09 10:08:09;;;;;;;7.92;7.12;;;;;;;24.28;38.26;101023.20;1643055;85;21092;-57
2021/09/09 10:10:36;;;;;;;7.75;7.15;;;;;;;24.24;38.42;101020.73;1632775;85;21285;-56
2021/09/09 10:13:03;;;;;;;10.60;7.72;;;;;;;24.23;38.53;101020.44;1643885;85;21163;-58
2021/09/09 10:15:31;;;;;;;7.97;7.28;;;;;;;24.26;38.56;101025.38;1639917;85;21138;-55
2021/09/09 10:18:00;;;;;;;7.55;7.00;;;;;;;24.32;38.81;101019.41;1599662;87;21059;-56
2021/09/09 10:20:40;;;;;;;8.60;7.80;;;;;;;24.40;38.70;101014.00;1590779;88;21532;-56
2021/09/09 10:23:14;;;;;;;9.88;8.95;;;;;;;24.40;38.40;101018.09;1605254;87;21071;-54
2021/09/09 10:25:58;;;;;;;11.05;7.40;;;;;;;24.33;38.53;101012.87;1658316;85;21512;-56
2021/09/09 10:28:50;;;;;;;8.15;7.50;;;;;;;24.31;38.29;101008.23;1642666;85;21094;-55
2021/09/09 10:31:19;;;;;;;8.03;7.12;;;;;;;24.37;38.32;101011.80;1662895;86;21148;-57
2021/09/09 10:33:48;;;;;;;8.68;7.85;;;;;;;24.43;38.24;101006.13;1649518;86;21063;-56
2021/09/09 10:36:44;;;;;;;7.97;7.17;;;;;;;24.45;38.15;101004.50;1666014;86;21176;-55
2021/09/09 10:39:21;;;;;;;10.53;7.72;;;;;;;24.44;38.36;101000.94;1649462;87;21115;-55
2021/09/09 10:41:48;;;;;;;10.88;8.13;;;;;;;24.47;38.28;101002.33;1662679;85;21208;-56
2021/09/09 10:44:15;;;;;;;8.48;7.45;;;;;;;24.46;38.24;101002.04;1623565;87;21043;-56
2021/09/09 10:46:47;;;;;;;8.40;7.05;;;;;;;24.48;38.29;101004.77;1627109;87;21064;-57
2021/09/09 10:49:20;;;;;;;8.48;7.35;;;;;;;24.50;38.38;100999.05;1686595;83;21030;-56
2021/09/09 10:52:06;;;;;;;7.85;7.08;;;;;;;24.51;37.95;100996.63;1689768;83;21033;-55
2021/09/09 10:54:35;;;;;;;8.48;7.35;;;;;;;24.48;37.87;100990.33;1658948;85;21534;-56
2021/09/09 10:57:14;;;;;;;8.48;7.20;;;;;;;24.47;37.76;100987.34;1643980;84;21028;-56
2021/09/09 10:59:49;;;;;;;6.92;6.42;;;;;;;24.49;37.69;100984.62;1618851;87;21063;-55
2021/09/09 11:02:18;;;;;;;8.05;7.22;;;;;;;24.52;37.57;100986.56;1618883;87;21046;-56
2021/09/09 11:04:49;;;;;;;7.37;6.67;;;;;;;24.49;37.67;100988.70;1686592;84;21042;-56
2021/09/09 11:07:27;;;;;;;8.40;7.70;;;;;;;24.49;36.98;100982.45;1679479;84;21137;-55
2021/09/09 11:10:10;;;;;;;7.17;6.60;;;;;;;24.42;37.35;100981.31;1675717;84;20970;-55
2021/09/09 11:12:39;;;;;;;7.70;7.00;;;;;;;24.41;37.27;100981.57;1672692;84;21033;-57
2021/09/09 11:15:10;;;;;;;7.75;6.97;;;;;;;24.41;37.40;100972.03;1681470;84;21030;-56
2021/09/09 11:17:38;;;;;;;7.25;6.65;;;;;;;24.44;37.57;100972.33;1674823;84;21037;-56
2021/09/09 11:20:10;;;;;;;8.63;7.92;;;;;;;24.49;37.35;100964.73;1621413;86;21077;-57
2021/09/09 11:22:38;;;;;;;7.58;7.03;;;;;;;24.55;37.35;100966.97;1625333;86;21162;-62